St.peterburg Pilot — UAMI — position and weather

sailwx.info

Track history (hours):
 
Tides and Currents Weather Stations Pressure Air Temp Water Temp Dewpoint Dewpoint Depression Visibility Wind Speed Wind Dir Waves Ship Positions

St.peterburg Pilot

Last reported at 2017-Jan-19 15:20 UTC. Time now 2017-Jan-20 18:11 UTC.
Position N 60°01' E 029°34'.

Length 59 m; draft 3.8 m.

Type: Pilot. MMSI: 273436530.

Date/timePositionNaut miles runAvg speedWind from/ knotsBaromVisibWave heightAir tempDewpointWater temp
2017-Jan-19 15:20N 60°01' E 029°34'6 0.3
2017-Jan-18 17:33N 59°59' E 029°46'10 9.9
2017-Jan-18 16:33N 59°55' E 030°04'5 5.0
2017-Jan-18 15:31N 59°55' E 030°14'0 0.0
2017-Jan-18 14:33N 59°55' E 030°14'0 0.0
2017-Jan-18 13:24N 59°55' E 030°14'0 0.0
2017-Jan-18 12:31N 59°55' E 030°14'0 0.0
2017-Jan-18 11:33N 59°55' E 030°14'0 0.0
2017-Jan-18 10:33N 59°55' E 030°14'0 0.0
2017-Jan-18 09:31N 59°55' E 030°14'0 0.0
2017-Jan-18 08:30N 59°55' E 030°14'0 0.0
2017-Jan-18 07:33N 59°55' E 030°14'0 0.0
2017-Jan-18 06:32N 59°55' E 030°14'0 0.0
2017-Jan-18 05:33N 59°55' E 030°14'0 0.0
2017-Jan-18 04:33N 59°55' E 030°14'0 0.0
2017-Jan-18 03:33N 59°55' E 030°14'0 0.0
2017-Jan-18 02:32N 59°55' E 030°14'0 0.0
2017-Jan-18 01:32N 59°55' E 030°14'0 0.0
2017-Jan-18 00:26N 59°55' E 030°14'0 0.0
2017-Jan-17 23:32N 59°55' E 030°14'0 0.0
2017-Jan-17 22:30N 59°55' E 030°14'0 0.0
2017-Jan-17 21:32N 59°55' E 030°14'0 0.0
2017-Jan-17 20:30N 59°55' E 030°14'0 0.0
2017-Jan-17 19:33N 59°55' E 030°14'0 0.0
2017-Jan-17 18:32N 59°55' E 030°14'0 0.0
2017-Jan-17 17:31N 59°55' E 030°14'0 0.0
2017-Jan-17 16:31N 59°55' E 030°14'0 0.0
2017-Jan-17 15:32N 59°55' E 030°14'0 0.0
2017-Jan-17 14:32N 59°55' E 030°14'0 0.0
2017-Jan-17 13:32N 59°55' E 030°14'0 0.0
2017-Jan-17 12:31N 59°55' E 030°14'0 0.0
2017-Jan-17 11:31N 59°55' E 030°14'0 0.0
2017-Jan-17 10:32N 59°55' E 030°14'0 0.0
2017-Jan-17 09:32N 59°55' E 030°14'0 0.0
2017-Jan-17 08:31N 59°55' E 030°14'0 0.0
2017-Jan-17 07:33N 59°55' E 030°14'4 4.2
2017-Jan-17 06:33N 59°54' E 030°06'15 0.7
2017-Jan-16 10:19N 59°60' E 029°39'2 0.1
2017-Jan-15 07:31N 59°59' E 029°42'0 0.1
2017-Jan-15 01:33N 59°60' E 029°42'1 0.0
2017-Jan-13 07:32N 59°59' E 029°43'6 5.0
2017-Jan-13 06:24N 60°01' E 029°32'  
2017-Jan-10 14:11N 60°01' E 029°32'  
Track history (hours):
 
Tides and Currents Weather Stations Pressure Air Temp Water Temp Dewpoint Dewpoint Depression Visibility Wind Speed Wind Dir Waves Ship Positions

St.peterburg Pilot

Last reported at 2017-Jan-19 15:20 UTC. Time now 2017-Jan-20 18:11 UTC.
Position N 60°01' E 029°34'.

Length 59 m; draft 3.8 m.

Type: Pilot. MMSI: 273436530.

Date/timePositionNaut miles runAvg speedWind from/ knotsBaromVisibWave heightAir tempDewpointWater temp
2017-Jan-19 15:20N 60°01' E 029°34'6 0.3
2017-Jan-18 17:33N 59°59' E 029°46'10 9.9
2017-Jan-18 16:33N 59°55' E 030°04'5 5.0
2017-Jan-18 15:31N 59°55' E 030°14'0 0.0
2017-Jan-18 14:33N 59°55' E 030°14'0 0.0
2017-Jan-18 13:24N 59°55' E 030°14'0 0.0
2017-Jan-18 12:31N 59°55' E 030°14'0 0.0
2017-Jan-18 11:33N 59°55' E 030°14'0 0.0
2017-Jan-18 10:33N 59°55' E 030°14'0 0.0
2017-Jan-18 09:31N 59°55' E 030°14'0 0.0
2017-Jan-18 08:30N 59°55' E 030°14'0 0.0
2017-Jan-18 07:33N 59°55' E 030°14'0 0.0
2017-Jan-18 06:32N 59°55' E 030°14'0 0.0
2017-Jan-18 05:33N 59°55' E 030°14'0 0.0
2017-Jan-18 04:33N 59°55' E 030°14'0 0.0
2017-Jan-18 03:33N 59°55' E 030°14'0 0.0
2017-Jan-18 02:32N 59°55' E 030°14'0 0.0
2017-Jan-18 01:32N 59°55' E 030°14'0 0.0
2017-Jan-18 00:26N 59°55' E 030°14'0 0.0
2017-Jan-17 23:32N 59°55' E 030°14'0 0.0
2017-Jan-17 22:30N 59°55' E 030°14'0 0.0
2017-Jan-17 21:32N 59°55' E 030°14'0 0.0
2017-Jan-17 20:30N 59°55' E 030°14'0 0.0
2017-Jan-17 19:33N 59°55' E 030°14'0 0.0
2017-Jan-17 18:32N 59°55' E 030°14'0 0.0
2017-Jan-17 17:31N 59°55' E 030°14'0 0.0
2017-Jan-17 16:31N 59°55' E 030°14'0 0.0
2017-Jan-17 15:32N 59°55' E 030°14'0 0.0
2017-Jan-17 14:32N 59°55' E 030°14'0 0.0
2017-Jan-17 13:32N 59°55' E 030°14'0 0.0
2017-Jan-17 12:31N 59°55' E 030°14'0 0.0
2017-Jan-17 11:31N 59°55' E 030°14'0 0.0
2017-Jan-17 10:32N 59°55' E 030°14'0 0.0
2017-Jan-17 09:32N 59°55' E 030°14'0 0.0
2017-Jan-17 08:31N 59°55' E 030°14'0 0.0
2017-Jan-17 07:33N 59°55' E 030°14'4 4.2
2017-Jan-17 06:33N 59°54' E 030°06'15 0.7
2017-Jan-16 10:19N 59°60' E 029°39'2 0.1
2017-Jan-15 07:31N 59°59' E 029°42'0 0.1
2017-Jan-15 01:33N 59°60' E 029°42'1 0.0
2017-Jan-13 07:32N 59°59' E 029°43'6 5.0
2017-Jan-13 06:24N 60°01' E 029°32'  
2017-Jan-10 14:11N 60°01' E 029°32'  

Dump ship's entire track history